METAR Formatted Surface Weather Observation
Issued by NWS

Home | Current Version | Previous Version | Text Only | Print | Product List | Glossary Off
Versions: 1 2 3 4 5 6

000
SAUS42 KTAE 011859
MTR1J0
METAR K1J0 011858Z AUTO VRB04KT 10SM 34/19 A3006 RMK AO2 SLPNO
T03390194 TSNO



USA.gov is the U.S. government's official web portal to all federal, state and local government web resources and services.